createdAt,value
2022-08-30T00:03:02.217Z,7.93
2022-08-30T00:08:33.429Z,9.77
2022-08-30T00:11:27.093Z,7.97
2022-08-30T00:14:15.271Z,8.53
2022-08-30T00:17:07.360Z,9.60
2022-08-30T00:19:58.509Z,10.10
2022-08-30T00:25:37.110Z,8.23
2022-08-30T00:28:26.213Z,10.30
2022-08-30T00:34:04.074Z,7.60
2022-08-30T00:39:35.882Z,10.90
2022-08-30T00:45:08.835Z,7.87
2022-08-30T00:48:01.036Z,8.10
2022-08-30T00:53:35.271Z,10.77
2022-08-30T00:56:25.142Z,6.90
2022-08-30T00:59:14.592Z,7.93
2022-08-30T01:02:03.966Z,7.03
2022-08-30T01:04:53.434Z,9.43
2022-08-30T01:10:30.462Z,8.23
2022-08-30T01:16:02.483Z,6.90
2022-08-30T01:22:03.138Z,8.57
2022-08-30T01:27:36.080Z,9.17
2022-08-30T01:30:25.067Z,10.37
2022-08-30T01:36:07.235Z,8.73
2022-08-30T01:38:57.401Z,7.77
2022-08-30T01:41:46.631Z,8.27
2022-08-30T01:47:22.972Z,10.20
2022-08-30T01:50:13.918Z,8.77
2022-08-30T01:53:03.911Z,10.70
2022-08-30T01:58:43.812Z,8.50
2022-08-30T02:04:15.494Z,10.30
2022-08-30T02:09:46.278Z,7.97
2022-08-30T02:15:24.194Z,8.93
2022-08-30T02:20:59.339Z,12.27
2022-08-30T02:23:48.611Z,11.73
2022-08-30T02:26:38.026Z,12.77
2022-08-30T02:29:27.429Z,10.37
2022-08-30T02:35:20.131Z,11.57
2022-08-30T02:38:09.523Z,13.47
2022-08-30T02:41:00.271Z,12.10
2022-08-30T02:43:48.821Z,11.60
2022-08-30T02:49:33.243Z,10.17
2022-08-30T02:55:01.086Z,10.83
2022-08-30T02:57:49.273Z,8.30
2022-08-30T03:00:37.962Z,12.77
2022-08-30T03:03:27.001Z,8.93
2022-08-30T03:06:16.578Z,10.20
2022-08-30T03:09:04.829Z,9.60
2022-08-30T03:11:53.239Z,9.53
2022-08-30T03:14:42.687Z,8.77
2022-08-30T03:17:31.420Z,10.13
2022-08-30T03:23:05.942Z,9.27
2022-08-30T03:28:38.407Z,10.17
2022-08-30T03:31:27.185Z,8.43
2022-08-30T03:34:19.761Z,8.43
2022-08-30T03:39:57.856Z,8.50
2022-08-30T03:45:35.417Z,8.27
2022-08-30T03:51:08.985Z,10.87
2022-08-30T03:56:43.666Z,8.57
2022-08-30T03:59:32.274Z,8.27
2022-08-30T04:05:11.181Z,11.77
2022-08-30T04:10:47.505Z,12.23
2022-08-30T04:16:25.470Z,9.57
2022-08-30T04:19:13.959Z,12.03
2022-08-30T04:22:07.081Z,10.73
2022-08-30T04:27:43.914Z,11.67
2022-08-30T04:33:39.371Z,9.77
2022-08-30T04:39:11.876Z,13.33
2022-08-30T04:42:01.033Z,10.10
2022-08-30T04:51:21.760Z,13.77
2022-08-30T04:54:10.096Z,11.63
2022-08-30T04:57:04.146Z,11.47
2022-08-30T05:02:56.309Z,9.93
2022-08-30T05:05:50.793Z,11.43
2022-08-30T05:11:27.573Z,9.43
2022-08-30T05:16:56.743Z,10.80
2022-08-30T05:19:45.736Z,11.67
2022-08-30T05:22:37.108Z,12.50
2022-08-30T05:25:27.587Z,13.23
2022-08-30T05:28:16.369Z,11.00
2022-08-30T05:31:07.505Z,15.20
2022-08-30T05:34:00.341Z,11.20
2022-08-30T05:39:50.705Z,13.23
2022-08-30T05:42:30.290Z,11.93
2022-08-30T05:45:18.677Z,12.97
2022-08-30T05:48:07.384Z,11.83
2022-08-30T05:51:05.817Z,14.90
2022-08-30T05:56:39.099Z,14.47
2022-08-30T05:59:28.536Z,13.47
2022-08-30T06:02:19.743Z,10.70
2022-08-30T06:07:56.992Z,10.93
2022-08-30T06:10:45.232Z,13.83
2022-08-30T06:13:34.565Z,8.70
2022-08-30T06:19:04.956Z,11.93
2022-08-30T06:30:18.923Z,13.33
2022-08-30T06:38:33.724Z,13.23
2022-08-30T06:41:25.432Z,12.40
2022-08-30T06:44:14.323Z,14.57
2022-08-30T06:50:10.029Z,15.17
2022-08-30T06:55:39.216Z,14.67
2022-08-30T07:01:06.949Z,19.10
2022-08-30T07:03:57.059Z,14.57
2022-08-30T07:06:46.920Z,19.73
2022-08-30T07:12:17.546Z,13.37
2022-08-30T07:18:05.067Z,14.47
2022-08-30T07:20:54.381Z,14.40
2022-08-30T07:26:33.267Z,13.70
2022-08-30T07:32:07.598Z,10.37
2022-08-30T07:34:55.526Z,13.80
2022-08-30T07:37:44.015Z,15.40
2022-08-30T07:43:19.369Z,12.37
2022-08-30T07:46:09.661Z,10.27
2022-08-30T07:49:00.627Z,12.97
2022-08-30T07:54:31.634Z,9.53
2022-08-30T07:57:21.978Z,10.77
2022-08-30T08:02:55.698Z,8.67
2022-08-30T08:08:27.882Z,11.33
2022-08-30T08:14:05.714Z,12.57
2022-08-30T08:19:41.821Z,12.17
2022-08-30T08:25:17.271Z,9.13
2022-08-30T08:28:06.081Z,14.57
2022-08-30T08:33:34.462Z,10.43
2022-08-30T08:36:22.908Z,13.03
2022-08-30T08:39:12.086Z,12.73
2022-08-30T08:44:55.542Z,9.47
2022-08-30T08:47:48.147Z,11.90
2022-08-30T08:50:47.282Z,10.30
2022-08-30T08:53:52.473Z,8.40
2022-08-30T08:59:18.379Z,8.70
2022-08-30T09:04:48.344Z,10.57
2022-08-30T09:10:46.934Z,7.40
2022-08-30T09:13:18.956Z,9.17
2022-08-30T09:18:58.682Z,12.27
2022-08-30T09:24:42.983Z,11.27
2022-08-30T09:30:16.341Z,11.03
2022-08-30T09:35:54.107Z,11.43
2022-08-30T09:38:42.944Z,9.27
2022-08-30T09:41:43.279Z,9.93
2022-08-30T09:47:25.803Z,8.63
2022-08-30T09:53:09.881Z,9.33
2022-08-30T09:56:03.506Z,10.73
2022-08-30T10:01:47.461Z,7.17
2022-08-30T10:10:17.136Z,10.47
2022-08-30T10:15:50.251Z,8.40
2022-08-30T10:21:32.039Z,8.63
2022-08-30T10:24:22.987Z,8.07
2022-08-30T10:29:58.311Z,8.97
2022-08-30T10:35:38.527Z,7.10
2022-08-30T10:41:35.251Z,7.47
2022-08-30T10:47:18.592Z,10.30
2022-08-30T10:55:37.283Z,8.27
2022-08-30T11:01:28.777Z,10.47
2022-08-30T11:07:29.135Z,8.43
2022-08-30T11:13:04.687Z,10.77
2022-08-30T11:15:59.126Z,10.97
2022-08-30T11:21:37.463Z,11.10
2022-08-30T11:24:27.108Z,8.27
2022-08-30T11:30:53.245Z,8.27
2022-08-30T11:37:10.462Z,10.30
2022-08-30T11:40:02.068Z,7.80
2022-08-30T11:45:54.120Z,9.73
2022-08-30T11:51:30.582Z,10.03
2022-08-30T11:54:31.764Z,10.03
2022-08-30T12:00:16.347Z,8.70
2022-08-30T12:03:06.970Z,7.33
2022-08-30T12:12:07.525Z,10.83
2022-08-30T12:18:15.760Z,10.30
2022-08-30T12:23:56.962Z,10.50
2022-08-30T12:29:34.471Z,6.43
2022-08-30T12:35:11.207Z,7.23
2022-08-30T12:38:05.956Z,7.17
2022-08-30T12:43:51.120Z,6.83
2022-08-30T12:49:20.421Z,8.67
2022-08-30T12:55:17.687Z,7.47
2022-08-30T12:58:07.247Z,10.23
2022-08-30T13:04:03.513Z,6.67
2022-08-30T13:09:37.849Z,8.73
2022-08-30T13:12:27.644Z,6.70
2022-08-30T13:18:28.064Z,7.73
2022-08-30T13:24:24.869Z,6.50
2022-08-30T13:32:45.863Z,7.43
2022-08-30T13:35:36.611Z,6.80
2022-08-30T13:38:30.956Z,7.97
2022-08-30T13:44:12.230Z,8.93
2022-08-30T13:46:55.541Z,6.67
2022-08-30T13:49:47.355Z,6.80
2022-08-30T13:52:35.922Z,5.87
2022-08-30T13:58:13.297Z,6.97
2022-08-30T14:01:02.620Z,7.57
2022-08-30T14:12:14.653Z,6.47
2022-08-30T14:15:03.310Z,5.37
2022-08-30T14:23:21.289Z,10.17
2022-08-30T14:28:59.187Z,5.87
2022-08-30T14:34:29.918Z,5.43
2022-08-30T14:37:18.401Z,7.73
2022-08-30T14:42:59.024Z,7.27
2022-08-30T14:45:47.571Z,5.63
2022-08-30T14:48:37.043Z,5.83
2022-08-30T14:51:26.284Z,5.57
2022-08-30T14:54:15.783Z,6.23
2022-08-30T14:59:53.274Z,8.97
2022-08-30T15:02:42.471Z,6.07
2022-08-30T15:10:58.702Z,6.03
2022-08-30T15:13:48.151Z,4.50
2022-08-30T15:16:39.233Z,5.50
2022-08-30T15:22:15.539Z,6.43
2022-08-30T15:25:05.382Z,6.73
2022-08-30T15:31:28.250Z,5.97
2022-08-30T15:37:04.803Z,5.93
2022-08-30T15:45:20.581Z,5.77
2022-08-30T15:50:53.801Z,6.73
2022-08-30T15:56:27.780Z,6.47
2022-08-30T16:01:57.311Z,5.53
2022-08-30T16:04:46.442Z,4.60
2022-08-30T16:10:17.913Z,4.50
2022-08-30T16:13:07.925Z,7.63
2022-08-30T16:15:57.853Z,4.80
2022-08-30T16:18:46.854Z,8.43
2022-08-30T16:21:39.851Z,6.23
2022-08-30T16:24:29.244Z,5.37
2022-08-30T16:27:18.509Z,5.93
2022-08-30T16:30:15.663Z,5.00
2022-08-30T16:36:10.939Z,4.30
2022-08-30T16:41:46.603Z,7.63
2022-08-30T16:44:36.706Z,5.37
2022-08-30T16:50:08.751Z,6.33
2022-08-30T16:55:42.688Z,4.97
2022-08-30T17:04:03.293Z,4.80
2022-08-30T17:06:52.320Z,7.23
2022-08-30T17:09:42.726Z,4.77
2022-08-30T17:12:32.175Z,5.27
2022-08-30T17:15:22.700Z,5.90
2022-08-30T17:21:00.376Z,5.40
2022-08-30T17:26:32.196Z,9.37
2022-08-30T17:29:21.719Z,5.53
2022-08-30T17:34:54.380Z,5.17
2022-08-30T17:37:43.145Z,7.53
2022-08-30T17:43:17.149Z,5.93
2022-08-30T17:46:07.929Z,9.23
2022-08-30T17:56:35.537Z,6.70
2022-08-30T18:02:35.010Z,6.93
2022-08-30T18:24:30.921Z,4.87
2022-08-30T18:30:00.701Z,8.57
2022-08-30T18:32:48.962Z,7.93
2022-08-30T18:38:16.889Z,6.17
2022-08-30T18:47:08.427Z,5.77
2022-08-30T18:55:35.909Z,3.77
2022-08-30T18:58:29.684Z,7.57
2022-08-30T19:04:29.529Z,4.40
2022-08-30T19:09:58.923Z,6.07
2022-08-30T19:15:28.153Z,3.73
2022-08-30T19:21:04.382Z,3.90
2022-08-30T19:26:40.678Z,4.17
2022-08-30T19:29:29.611Z,3.97
2022-08-30T19:35:07.456Z,4.77
2022-08-30T19:40:43.349Z,4.20
2022-08-30T19:43:33.667Z,2.90
2022-08-30T19:49:14.152Z,5.43
2022-08-30T19:55:03.389Z,7.43
2022-08-30T20:00:39.168Z,10.07
2022-08-30T20:06:16.124Z,5.70
2022-08-30T20:11:45.211Z,4.97
2022-08-30T20:18:02.074Z,5.37
2022-08-30T20:26:16.761Z,6.70
2022-08-30T20:31:58.591Z,5.67
2022-08-30T20:34:50.172Z,4.20
2022-08-30T20:43:28.954Z,4.53
2022-08-30T20:46:22.232Z,4.30
2022-08-30T20:52:12.304Z,3.97
2022-08-30T20:55:02.695Z,3.83
2022-08-30T21:00:59.854Z,3.77
2022-08-30T21:03:51.343Z,6.57
2022-08-30T21:09:34.093Z,4.47
2022-08-30T21:15:34.113Z,4.00
2022-08-30T21:18:04.677Z,6.17
2022-08-30T21:20:52.479Z,4.57
2022-08-30T21:26:51.980Z,6.37
2022-08-30T21:35:34.342Z,4.33
2022-08-30T21:38:23.509Z,5.80
2022-08-30T21:44:02.171Z,3.53
2022-08-30T21:46:52.468Z,5.20
2022-08-30T21:49:40.905Z,4.47
2022-08-30T21:52:29.823Z,3.70
2022-08-30T21:57:57.362Z,6.30
2022-08-30T22:03:28.015Z,3.10
2022-08-30T22:09:07.839Z,3.50
2022-08-30T22:14:39.994Z,4.30
2022-08-30T22:20:19.277Z,3.77
2022-08-30T22:25:53.780Z,3.20
2022-08-30T22:31:29.132Z,5.00
2022-08-30T22:37:07.040Z,3.33
2022-08-30T22:42:35.276Z,4.37
2022-08-30T22:45:27.396Z,4.60
2022-08-30T22:51:08.311Z,3.50
2022-08-30T22:53:57.551Z,3.40
2022-08-30T22:56:46.602Z,4.03
2022-08-30T23:02:20.544Z,5.20
2022-08-30T23:05:09.727Z,5.53
2022-08-30T23:10:45.825Z,4.63
2022-08-30T23:16:14.790Z,5.67
2022-08-30T23:21:52.516Z,8.60
2022-08-30T23:24:58.431Z,5.20
2022-08-30T23:30:54.617Z,8.10
2022-08-30T23:36:46.978Z,8.13
2022-08-30T23:39:53.146Z,8.90
2022-08-30T23:45:45.956Z,9.97
2022-08-30T23:48:52.261Z,9.73
2022-08-30T23:51:58.009Z,6.30
2022-08-30T23:57:48.570Z,6.77
